M I D A S
Marine Information and Data Acquisition System
Tripno 1893 of the Zeeleeuw from 2010-06-03 06:12:09 to 2010-06-03 17:18:40
Back to CruiseResearch ActivitiesStationsMapUnderway DataData graphs

EquipmentUnitsComment
TimeDGPSUTC
LatitudeDGPSDM.mWGS84
LongitudeDGPSDM.mWGS84
HeadingGyrodeg 
SOGDGPSknotsSpeed over ground
COGDGPSdegCourse over ground
DepthEcho soundermeters200 kHz
Missing or incorrect values are displayed as -999
Navigation data collected by the RV Zeeleeuw from 2010-06-03 06:13:10 to 2010-06-03 17:25:54
Time Latitude Longitude Heading SOG COG Depth
2010-06-03 06:14:19 51°13.68 2°55.895 117.1 2.3 301 10.3
2010-06-03 06:15:19 51°13.707 2°55.806 111.3 4 292 -999
2010-06-03 06:16:18 51°13.721 2°55.731 95.5 1 293 15.1
2010-06-03 06:17:16 51°13.722 2°55.724 41.5 1.7 231 14.8
2010-06-03 06:18:19 51°13.735 2°55.708 349.2 2.9 338 -999
2010-06-03 06:19:16 51°13.802 2°55.656 334.8 5.9 334 13.1
2010-06-03 06:20:15 51°13.901 2°55.583 338.5 7.4 338 12.6
2010-06-03 06:21:15 51°14.015 2°55.498 337.4 7.5 335 12.6
2010-06-03 06:22:15 51°14.129 2°55.412 334.7 7.7 333 12.5
2010-06-03 06:23:15 51°14.242 2°55.304 330.3 8.1 328 -999
2010-06-03 06:24:15 51°14.368 2°55.183 332.1 9.3 330 12.2
2010-06-03 06:25:15 51°14.504 2°55.049 330.7 10 327 13
2010-06-03 06:26:15 51°14.657 2°54.903 330.4 11.3 329 13.3
2010-06-03 06:27:15 51°14.835 2°54.739 329.9 13.3 330 12.8
2010-06-03 06:28:15 51°15.015 2°54.533 319.3 13.3 319 11
2010-06-03 06:29:15 51°15.186 2°54.307 318.8 13.4 320 11.6
2010-06-03 06:30:15 51°15.356 2°54.077 320.7 13.5 321 12.1
2010-06-03 06:31:15 51°15.533 2°53.858 324.5 13.4 324 12.6
2010-06-03 06:32:15 51°15.715 2°53.651 325.3 13.5 324 12.8
2010-06-03 06:33:15 51°15.905 2°53.463 331.1 13.5 331 13.1
2010-06-03 06:34:15 51°16.105 2°53.303 333 13.4 333 13.4
2010-06-03 06:35:15 51°16.304 2°53.144 332.8 13.4 333 13.4
2010-06-03 06:36:15 51°16.504 2°52.984 332.9 13.5 334 13.1
2010-06-03 06:37:15 51°16.704 2°52.82 331.9 13.6 332 12.3
2010-06-03 06:38:15 51°16.909 2°52.666 336.5 13.7 337 10.8
2010-06-03 06:39:15 51°17.124 2°52.549 347.4 13.7 349 11.2
2010-06-03 06:40:15 51°17.352 2°52.491 352 13.8 352 11.5
2010-06-03 06:41:15 51°17.579 2°52.456 355.7 13.7 354 11.9
2010-06-03 06:42:15 51°17.807 2°52.45 2 13.7 359 11.7
2010-06-03 06:43:15 51°18.036 2°52.464 5.9 13.7 6 12.1
2010-06-03 06:44:15 51°18.264 2°52.495 6.2 13.8 5 12.2
2010-06-03 06:45:15 51°18.493 2°52.526 5.8 13.8 5 12.6
2010-06-03 06:46:15 51°18.722 2°52.556 5.6 13.8 5 13.1
2010-06-03 06:47:15 51°18.949 2°52.583 5.2 13.6 3 13.8
2010-06-03 06:48:15 51°19.175 2°52.605 5.4 13.6 4 14.8
2010-06-03 06:49:15 51°19.402 2°52.627 5.6 13.7 3 15.7
2010-06-03 06:50:15 51°19.629 2°52.648 5.4 13.7 4 16.5
2010-06-03 06:51:15 51°19.856 2°52.671 5.4 13.6 3 17.2
2010-06-03 06:52:15 51°20.081 2°52.697 5.3 13.5 4 17.3
2010-06-03 06:53:15 51°20.297 2°52.801 22.8 13.7 22 17.5
2010-06-03 06:54:15 51°20.51 2°52.933 22.7 13.8 21 17.5
2010-06-03 06:55:15 51°20.726 2°53.06 22.3 13.8 20 17.6
2010-06-03 06:56:15 51°20.941 2°53.185 21.9 13.7 20 17.4
2010-06-03 06:57:15 51°21.156 2°53.307 20.9 13.7 19 17.4
2010-06-03 06:58:15 51°21.374 2°53.407 15.1 13.7 14 17
2010-06-03 06:59:15 51°21.596 2°53.489 14.7 13.7 13 17.5
2010-06-03 07:00:15 51°21.817 2°53.579 14.8 13.7 14 19.1
2010-06-03 07:01:15 51°22.039 2°53.67 15.3 13.8 14 20.3
2010-06-03 07:02:15 51°22.26 2°53.761 15.2 13.8 14 21.7
2010-06-03 07:03:15 51°22.483 2°53.854 15.3 13.8 14 23.5
2010-06-03 07:04:15 51°22.706 2°53.944 15 13.8 14 23.5
2010-06-03 07:05:15 51°22.93 2°54.032 15.2 13.9 14 20.5
2010-06-03 07:06:15 51°23.156 2°54.123 15 14 14 22.8
2010-06-03 07:07:15 51°23.385 2°54.191 8.6 14 8 21.1
2010-06-03 07:08:15 51°23.615 2°54.242 8.3 13.9 7 21.5
2010-06-03 07:09:15 51°23.845 2°54.296 9.2 14 8 21.3
2010-06-03 07:10:15 51°24.076 2°54.349 9.4 14 8 22.6
2010-06-03 07:11:15 51°24.306 2°54.399 9.3 14 8 23.2
2010-06-03 07:12:15 51°24.537 2°54.455 9.1 14 8 20.7
2010-06-03 07:13:15 51°24.769 2°54.509 9.5 14 8 18.1
2010-06-03 07:14:15 51°25.001 2°54.564 9.5 14.2 8 20.3
2010-06-03 07:15:15 51°25.234 2°54.613 8.9 14.1 8 20.7
2010-06-03 07:16:15 51°25.466 2°54.657 9.3 14 6 20.9
2010-06-03 07:17:15 51°25.696 2°54.702 9.5 14 7 21.6
2010-06-03 07:18:15 51°25.926 2°54.744 9.4 13.9 7 23.9
2010-06-03 07:19:15 51°26.155 2°54.789 9.3 13.8 7 25.9
2010-06-03 07:20:15 51°26.382 2°54.836 9.5 13.7 8 25.2
2010-06-03 07:21:15 51°26.609 2°54.888 9.6 13.8 7 28.8
2010-06-03 07:22:15 51°26.837 2°54.937 9.3 13.9 7 26.9
2010-06-03 07:23:15 51°27.066 2°54.982 9.1 13.9 7 29
2010-06-03 07:24:15 51°27.295 2°55.029 9.5 13.9 7 30.2
2010-06-03 07:25:15 51°27.525 2°55.077 8.8 14 7 30.1
2010-06-03 07:26:15 51°27.756 2°55.123 8.9 14 7 28.5
2010-06-03 07:27:15 51°27.986 2°55.173 9.9 14 8 28.2
2010-06-03 07:28:15 51°28.218 2°55.22 9.5 14.1 8 24.1
2010-06-03 07:29:15 51°28.452 2°55.272 9.2 14.3 8 22.6
2010-06-03 07:30:15 51°28.687 2°55.313 3.7 14.1 1 23.3
2010-06-03 07:31:15 51°28.92 2°55.302 359.3 13.9 357 23.9
2010-06-03 07:32:15 51°29.15 2°55.288 359.3 13.8 358 25.8
2010-06-03 07:33:15 51°29.379 2°55.276 -999 13.7 358 27.2
2010-06-03 07:34:15 51°29.605 2°55.265 359.9 13.5 358 28.6
2010-06-03 07:35:15 51°29.83 2°55.252 359.7 13.6 358 29.9
2010-06-03 07:36:15 51°30.055 2°55.241 0.1 13.6 359 30.9
2010-06-03 07:37:15 51°30.283 2°55.232 0.2 13.8 357 35.7
2010-06-03 07:38:15 51°30.511 2°55.187 353.6 13.8 352 37.1
2010-06-03 07:39:15 51°30.739 2°55.14 354 13.8 352 34.4
2010-06-03 07:40:15 51°30.967 2°55.096 353.6 13.9 353 19.3
2010-06-03 07:41:15 51°31.198 2°55.049 353.9 14 353 17.8
2010-06-03 07:42:15 51°31.431 2°55.005 354.5 14 354 19.4
2010-06-03 07:43:15 51°31.662 2°54.962 354.9 14 352 20.9
2010-06-03 07:44:15 51°31.893 2°54.916 353.8 13.9 352 21.5
2010-06-03 07:45:15 51°32.123 2°54.87 354.3 13.9 353 22.7
2010-06-03 07:46:15 51°32.354 2°54.825 353.8 13.9 352 23
2010-06-03 07:47:15 51°32.584 2°54.801 2 13.8 359 24.2
2010-06-03 07:48:15 51°32.794 2°54.809 10.2 10.9 8 25.4
2010-06-03 07:49:15 51°32.957 2°54.883 25.5 9.9 23 26.5
2010-06-03 07:50:15 51°33.107 2°54.99 27.8 9.9 25 25.8
2010-06-03 07:51:15 51°33.257 2°55.096 26.9 9.6 23 26.7
2010-06-03 07:52:15 51°33.363 2°55.197 45.1 6.3 41 26.2
2010-06-03 07:53:15 51°33.411 2°55.31 86.3 4.7 83 27.6
2010-06-03 07:54:15 51°33.368 2°55.473 132 8.7 128 27.2
2010-06-03 07:55:15 51°33.266 2°55.664 135.5 9.2 132 27
2010-06-03 07:56:15 51°33.215 2°55.823 91.9 5 82 25.5
2010-06-03 07:57:15 51°33.257 2°55.907 37.9 2.9 33 26.7
2010-06-03 07:58:17 51°33.271 2°55.913 7 1.6 356 -999
2010-06-03 07:59:17 51°33.298 2°55.897 320.1 1.5 330 27.2
2010-06-03 08:00:15 51°33.314 2°55.875 315.8 1.2 318 27.2
2010-06-03 08:01:15 51°33.328 2°55.856 321.2 1 322 26.9
2010-06-03 08:02:15 51°33.34 2°55.842 324.6 0.8 321 27
2010-06-03 08:03:15 51°33.349 2°55.83 325.7 0.7 319 27.1
2010-06-03 08:04:15 51°33.368 2°55.79 292.3 3.7 289 26.6
2010-06-03 08:05:15 51°33.33 2°55.711 189.8 4.1 186 25.5
2010-06-03 08:06:15 51°33.264 2°55.721 170.3 3.8 171 27
2010-06-03 08:07:16 51°33.217 2°55.731 170.7 1.7 174 26.4
2010-06-03 08:08:16 51°33.195 2°55.729 180.1 1.1 190 25.6
2010-06-03 08:09:16 51°33.184 2°55.722 189.8 0.6 210 26.6
2010-06-03 08:10:16 51°33.181 2°55.713 189.9 0.5 331 26.6
2010-06-03 08:11:18 51°33.2 2°55.711 201.2 1.5 7 26.3
2010-06-03 08:12:20 51°33.247 2°55.745 216.6 3.5 30 -999
2010-06-03 08:13:19 51°33.283 2°55.78 229.2 0.9 18 24.6
2010-06-03 08:14:17 51°33.288 2°55.745 279.1 1.8 284 23.1
2010-06-03 08:15:16 51°33.295 2°55.707 285.5 1.4 290 25.1
2010-06-03 08:16:16 51°33.301 2°55.677 289.8 1.1 289 26.2
2010-06-03 08:17:16 51°33.307 2°55.652 295.8 0.9 292 26.5
2010-06-03 08:18:16 51°33.312 2°55.632 301.3 0.7 291 27.1
2010-06-03 08:19:16 51°33.317 2°55.615 305.7 0.7 289 27.2
2010-06-03 08:20:16 51°33.319 2°55.6 309.2 0.6 273 27.3
2010-06-03 08:21:16 51°33.321 2°55.586 308.6 0.6 271 27.3
2010-06-03 08:22:16 51°33.321 2°55.571 307.3 0.5 268 27.4
2010-06-03 08:23:16 51°33.321 2°55.557 304.9 0.5 265 27.4
2010-06-03 08:24:16 51°33.319 2°55.545 301.6 0.4 267 27.4
2010-06-03 08:25:16 51°33.318 2°55.533 299 0.5 254 27.1
2010-06-03 08:26:16 51°33.315 2°55.521 296.1 0.5 245 27
2010-06-03 08:27:16 51°33.331 2°55.485 325.6 3.1 324 26.5
2010-06-03 08:28:16 51°33.393 2°55.507 50.9 3.9 45 27.3
2010-06-03 08:29:16 51°33.4 2°55.595 105.8 4.9 106 25.8
2010-06-03 08:30:16 51°33.396 2°55.724 64.5 4.8 56 26.9
2010-06-03 08:31:16 51°33.475 2°55.718 323.1 6.4 318 26.6
2010-06-03 08:32:16 51°33.454 2°55.488 239.1 12.3 241 26
2010-06-03 08:33:16 51°33.318 2°55.212 231.3 13.2 232 26.9
2010-06-03 08:34:16 51°33.129 2°55.049 194 13.3 196 24.5
2010-06-03 08:35:16 51°32.927 2°55.102 145 12.5 142 22.4
2010-06-03 08:36:16 51°32.839 2°55.283 127.9 6.3 129 22.5
2010-06-03 08:37:16 51°32.797 2°55.374 117.2 2.5 119 25.4
2010-06-03 08:38:16 51°32.785 2°55.403 118 1.1 125 25.5
2010-06-03 08:39:16 51°32.775 2°55.422 115.5 0.8 130 26.1
2010-06-03 08:40:16 51°32.766 2°55.437 113 0.7 136 26.5
2010-06-03 08:41:16 51°32.759 2°55.448 111 0.5 143 27
2010-06-03 08:42:16 51°32.753 2°55.454 108.8 0.4 155 26.8
2010-06-03 08:43:16 51°32.748 2°55.457 108.3 0.3 168 26.7
2010-06-03 08:44:16 51°32.742 2°55.458 107.7 0.4 184 26.5
2010-06-03 08:45:16 51°32.727 2°55.499 110.9 4.4 113 27.3
2010-06-03 08:46:16 51°32.661 2°55.671 126.9 9.3 129 26.8
2010-06-03 08:47:16 51°32.574 2°55.847 141.7 6.5 142 24.3
2010-06-03 08:48:16 51°32.527 2°55.908 128.4 1.8 129 23.3
2010-06-03 08:49:16 51°32.516 2°55.926 122.5 0.8 133 22.7
2010-06-03 08:50:16 51°32.508 2°55.939 116.8 0.5 134 22.6
2010-06-03 08:51:16 51°32.503 2°55.947 111.7 0.4 147 22.6
2010-06-03 08:52:16 51°32.498 2°55.951 110.3 0.4 169 22.2
2010-06-03 08:53:16 51°32.493 2°55.951 109.1 0.3 183 22.5
2010-06-03 08:54:16 51°32.488 2°55.95 109.4 0.4 196 22.3
2010-06-03 08:55:16 51°32.483 2°55.947 109.3 0.4 198 22.3
2010-06-03 08:56:16 51°32.472 2°55.96 115.9 2.7 122 22
2010-06-03 08:57:16 51°32.411 2°56.127 120.4 9.3 120 21.9
2010-06-03 08:58:16 51°32.315 2°56.357 135.8 9.9 138 21.5
2010-06-03 08:59:16 51°32.242 2°56.472 126.6 3.5 131 21.1
2010-06-03 09:00:16 51°32.223 2°56.49 150.7 0.9 169 20.6
2010-06-03 09:01:16 51°32.208 2°56.492 145.7 0.8 178 19.6
2010-06-03 09:02:16 51°32.198 2°56.492 135.7 0.5 180 19.3
2010-06-03 09:03:16 51°32.19 2°56.49 128.6 0.4 195 20.4
2010-06-03 09:04:16 51°32.184 2°56.486 121.9 0.4 207 20.3
2010-06-03 09:05:16 51°32.178 2°56.48 115.5 0.4 215 20
2010-06-03 09:06:16 51°32.172 2°56.472 112.8 0.5 224 19.6
2010-06-03 09:07:16 51°32.166 2°56.462 112.9 0.6 222 19.4
2010-06-03 09:08:16 51°32.134 2°56.481 161.2 3.9 172 19.3
2010-06-03 09:10:29 51°32.159 2°56.146 297.9 10.9 295 19.9
2010-06-03 09:12:34 51°32.318 2°55.761 323.2 5.5 317 19.7
2010-06-03 09:13:34 51°32.376 2°55.664 317.8 4.7 311 20.5
2010-06-03 09:14:34 51°32.418 2°55.579 314.3 3.5 306 20.4
2010-06-03 09:15:34 51°32.448 2°55.518 319.7 2.4 307 21.1
2010-06-03 09:16:34 51°32.467 2°55.473 321.1 1.8 303 22.2
2010-06-03 09:17:34 51°32.48 2°55.438 322 1.4 294 23
2010-06-03 09:18:34 51°32.511 2°55.406 -999 3.7 357 22.1
2010-06-03 09:19:34 51°32.553 2°55.469 78.2 3.2 79 22.8
2010-06-03 09:20:34 51°32.546 2°55.529 111.7 2 120 22.5
2010-06-03 09:21:34 51°32.518 2°55.557 147.6 2.1 162 21.7
2010-06-03 09:22:34 51°32.48 2°55.567 157 2.4 177 22.1
2010-06-03 09:23:34 51°32.425 2°55.566 189.8 4.5 202 19.8
2010-06-03 09:24:34 51°32.388 2°55.469 263.8 4 261 21
2010-06-03 09:25:34 51°32.384 2°55.377 276.2 3 269 22.1
2010-06-03 09:26:34 51°32.385 2°55.305 284.4 2.4 272 21.5
2010-06-03 09:27:34 51°32.387 2°55.248 290.4 2 276 21.6
2010-06-03 09:28:34 51°32.39 2°55.201 298.9 1.6 276 22.1
2010-06-03 09:29:34 51°32.391 2°55.163 305.7 1.3 269 19.8
2010-06-03 09:30:34 51°32.391 2°55.13 310.7 1.1 267 21.9
2010-06-03 09:31:34 51°32.39 2°55.102 315.8 1 261 22.8
2010-06-03 09:32:34 51°32.386 2°55.076 319.2 1.1 257 23.2
2010-06-03 09:33:34 51°32.382 2°55.051 321.3 1 254 22.4
2010-06-03 09:34:34 51°32.377 2°55.026 320.9 1 250 20.7
2010-06-03 09:35:34 51°32.37 2°55.002 320 1 245 21.5
2010-06-03 09:36:34 51°32.362 2°54.979 316.5 1 234 22.4
2010-06-03 09:37:34 51°32.35 2°54.96 309.2 1 219 22.7
2010-06-03 09:38:34 51°32.338 2°54.946 296.5 0.9 211 22.9
2010-06-03 09:39:34 51°32.325 2°54.936 284.3 0.8 205 21.7
2010-06-03 09:40:34 51°32.313 2°54.928 272 0.7 202 20.3
2010-06-03 09:41:34 51°32.302 2°54.92 261.9 0.7 203 20.5
2010-06-03 09:42:34 51°32.292 2°54.912 253.3 0.7 208 21.5
2010-06-03 09:43:34 51°32.282 2°54.904 247.3 0.7 211 22.3
2010-06-03 09:44:34 51°32.273 2°54.894 242.5 0.7 221 22.7
2010-06-03 09:45:34 51°32.263 2°54.883 238.4 0.7 213 22.4
2010-06-03 09:46:34 51°32.252 2°54.869 238.2 1 225 22
2010-06-03 09:47:34 51°32.24 2°54.846 248.9 1.2 230 21
2010-06-03 09:48:34 51°32.227 2°54.821 256.6 1.3 234 20.8
2010-06-03 09:49:34 51°32.216 2°54.793 265.7 1.2 236 22.4
2010-06-03 09:50:34 51°32.205 2°54.766 274 1.1 237 22.2
2010-06-03 09:51:34 51°32.194 2°54.741 282.6 1.2 235 21.5
2010-06-03 09:52:34 51°32.183 2°54.716 290.7 1.2 232 20.4
2010-06-03 09:53:34 51°32.172 2°54.691 298 1.2 232 21.4
2010-06-03 09:54:34 51°32.16 2°54.666 306.3 1.2 234 21.8
2010-06-03 09:55:34 51°32.147 2°54.641 313.8 1.2 229 19.9
2010-06-03 09:56:34 51°32.134 2°54.616 316.4 1.2 227 21.4
2010-06-03 09:57:34 51°32.12 2°54.591 315.1 1.3 228 21.7
2010-06-03 09:58:34 51°32.11 2°54.56 321 1.6 270 21
2010-06-03 09:59:34 51°32.13 2°54.525 6.7 2.1 348 21.3
2010-06-03 10:00:34 51°32.177 2°54.583 51 6.3 50 18.7
2010-06-03 10:01:34 51°32.235 2°54.766 66.7 8.4 66 22.3
2010-06-03 10:02:34 51°32.297 2°54.971 62.3 8.6 61 21.6
2010-06-03 10:03:34 51°32.366 2°55.151 55.2 6.3 54 22.4
2010-06-03 10:04:34 51°32.421 2°55.24 40 3.7 36 20.2
2010-06-03 10:05:34 51°32.464 2°55.278 37.9 2.4 35 22.1
2010-06-03 10:06:34 51°32.475 2°55.325 81.9 2 99 20.8
2010-06-03 10:07:34 51°32.471 2°55.391 76.5 2.8 88 22.4
2010-06-03 10:08:34 51°32.462 2°55.462 97.3 2.6 117 23.1
2010-06-03 10:09:34 51°32.438 2°55.517 106.2 2.4 130 22.4
2010-06-03 10:10:34 51°32.422 2°55.572 75.4 2.7 83 19.7
2010-06-03 10:11:34 51°32.44 2°55.606 32 0.9 19 22.1
2010-06-03 10:12:34 51°32.442 2°55.596 0.8 0.7 240 21.9
2010-06-03 10:13:34 51°32.432 2°55.574 333.3 1.1 234 21.4
2010-06-03 10:14:34 51°32.42 2°55.547 314 1.3 232 22.2
2010-06-03 10:15:34 51°32.406 2°55.521 304.9 1.3 230 22.8
2010-06-03 10:16:34 51°32.391 2°55.495 302 1.4 225 22.2
2010-06-03 10:17:34 51°32.374 2°55.469 298.7 1.5 223 19.8
2010-06-03 10:18:34 51°32.357 2°55.441 296.7 1.5 222 21.4
2010-06-03 10:19:34 51°32.339 2°55.415 298.3 1.5 221 22.2
2010-06-03 10:20:34 51°32.321 2°55.389 299.2 1.5 221 20.8
2010-06-03 10:21:34 51°32.302 2°55.362 299.1 1.5 220 20.5
2010-06-03 10:22:34 51°32.282 2°55.336 299.4 1.5 220 21
2010-06-03 10:23:34 51°32.268 2°55.3 310.2 2.6 280 20.5
2010-06-03 10:24:34 51°32.319 2°55.281 24.7 4.6 21 21
2010-06-03 10:25:34 51°32.393 2°55.374 44.1 6.3 44 22.2
2010-06-03 10:26:34 51°32.47 2°55.496 41.6 6.3 40 21
2010-06-03 10:27:34 51°32.533 2°55.585 47.9 4.1 49 22.8
2010-06-03 10:28:34 51°32.57 2°55.635 24 2.1 14 19.1
2010-06-03 10:29:34 51°32.586 2°55.623 353.6 1 263 20.3
2010-06-03 10:30:34 51°32.575 2°55.593 324.5 1.5 236 22.2
2010-06-03 10:31:34 51°32.56 2°55.559 306.8 1.6 234 23
2010-06-03 10:32:34 51°32.544 2°55.526 304.4 1.6 232 22.2
2010-06-03 10:33:34 51°32.526 2°55.493 309.3 1.6 229 22.6
2010-06-03 10:34:34 51°32.508 2°55.462 315.8 1.6 227 22.5
2010-06-03 10:35:34 51°32.49 2°55.431 316.7 1.7 223 22
2010-06-03 10:36:34 51°32.47 2°55.4 316.8 1.7 222 22.8
2010-06-03 10:37:34 51°32.448 2°55.369 313.4 1.8 222 18.1
2010-06-03 10:38:34 51°32.426 2°55.337 311.2 1.8 219 22.4
2010-06-03 10:39:34 51°32.404 2°55.306 308 1.8 222 22
2010-06-03 10:40:34 51°32.382 2°55.274 304.9 1.9 221 19.6
2010-06-03 10:41:34 51°32.358 2°55.243 303.5 1.8 219 21.7
2010-06-03 10:42:34 51°32.335 2°55.212 300.6 1.8 219 21.2
2010-06-03 10:43:34 51°32.312 2°55.182 301.4 1.7 218 22.6
2010-06-03 10:44:34 51°32.289 2°55.153 301.8 1.8 217 21.1
2010-06-03 10:45:34 51°32.265 2°55.122 300.6 1.9 217 21.8
2010-06-03 10:46:34 51°32.241 2°55.093 300.3 1.9 217 22.1
2010-06-03 10:47:34 51°32.217 2°55.063 299.3 1.9 216 20.5
2010-06-03 10:48:34 51°32.192 2°55.032 298.9 1.8 217 21.5
2010-06-03 10:49:34 51°32.169 2°54.999 303.1 2 234 21.8
2010-06-03 10:50:34 51°32.17 2°54.948 343.9 2.3 314 20.9
2010-06-03 10:51:34 51°32.199 2°54.964 57.7 2.7 69 22.2
2010-06-03 10:52:34 51°32.214 2°55.118 78.4 7.9 84 22.1
2010-06-03 10:53:34 51°32.255 2°55.317 60 5.9 60 21
2010-06-03 10:54:34 51°32.3 2°55.375 29.6 2.6 22 19.9
2010-06-03 10:55:34 51°32.339 2°55.405 38.5 3.8 40 22.3
2010-06-03 10:56:34 51°32.392 2°55.527 62.2 6.9 67 22.2
2010-06-03 10:57:34 51°32.454 2°55.704 57.3 7.3 59 22.4
2010-06-03 10:58:34 51°32.48 2°55.81 74.9 2.7 92 22.3
2010-06-03 10:59:34 51°32.461 2°55.854 100.4 2 146 21.9
2010-06-03 11:00:34 51°32.43 2°55.873 108.3 2 168 20.6
2010-06-03 11:01:34 51°32.399 2°55.877 111.2 1.9 181 19.7
2010-06-03 11:02:34 51°32.368 2°55.871 114.3 1.8 191 21.8
2010-06-03 11:03:34 51°32.34 2°55.857 115 1.8 204 22.8
2010-06-03 11:04:34 51°32.313 2°55.833 117.5 1.9 213 22.6
2010-06-03 11:05:34 51°32.286 2°55.802 124 2 219 20.1
2010-06-03 11:06:34 51°32.26 2°55.768 131.5 2 218 21.5
2010-06-03 11:07:34 51°32.234 2°55.733 140.6 2 219 21.7
2010-06-03 11:08:34 51°32.208 2°55.699 146.5 2 219 21.4
2010-06-03 11:09:34 51°32.181 2°55.663 150.4 2.2 221 17.1
2010-06-03 11:10:34 51°32.155 2°55.626 152.2 2.1 221 20.6
2010-06-03 11:11:34 51°32.128 2°55.59 153.3 2.1 219 20.5
2010-06-03 11:12:34 51°32.101 2°55.555 150.3 2.1 219 18.9
2010-06-03 11:13:34 51°32.073 2°55.52 146.1 2.1 218 20.5
2010-06-03 11:14:34 51°32.046 2°55.487 141.6 2 217 20.1
2010-06-03 11:15:34 51°32.018 2°55.453 137 2.1 217 20.8
2010-06-03 11:16:34 51°31.99 2°55.421 131.9 2 217 21.1
2010-06-03 11:17:34 51°31.963 2°55.387 130.3 2.2 218 18.4
2010-06-03 11:18:34 51°31.935 2°55.353 129.6 2.2 217 21.2
2010-06-03 11:19:34 51°31.908 2°55.319 133.4 2.1 218 20.4
2010-06-03 11:20:34 51°31.879 2°55.282 135.8 2.2 219 19.5
2010-06-03 11:21:34 51°31.851 2°55.245 137.9 2.3 219 20.6
2010-06-03 11:22:34 51°31.816 2°55.228 114.6 2.2 178 18.7
2010-06-03 11:23:34 51°31.787 2°55.248 79.7 1.7 124 19.6
2010-06-03 11:24:34 51°31.804 2°55.284 30.6 2.8 28 19.2
2010-06-03 11:25:34 51°31.851 2°55.348 39.7 4.2 40 16.3
2010-06-03 11:26:34 51°31.904 2°55.426 35.6 4.4 32 20.9
2010-06-03 11:27:34 51°31.977 2°55.449 10.6 4.8 358 21.2
2010-06-03 11:28:34 51°32.057 2°55.44 15 4.7 6 17.6
2010-06-03 11:29:34 51°32.108 2°55.478 40.7 2.8 42 20.9
2010-06-03 11:30:34 51°32.137 2°55.529 44.4 2.4 48 20.7
2010-06-03 11:31:34 51°32.18 2°55.587 36.4 3.7 35 21
2010-06-03 11:32:34 51°32.219 2°55.607 18.2 1.9 1 19.3
2010-06-03 11:33:34 51°32.249 2°55.601 15 1.9 353 18.9
2010-06-03 11:34:34 51°32.292 2°55.599 15.7 4 6 21.9
2010-06-03 11:35:34 51°32.385 2°55.631 20.6 6.3 14 18.8
2010-06-03 11:36:34 51°32.431 2°55.701 76 3.7 100 22.9
2010-06-03 11:37:34 51°32.392 2°55.759 124.9 3.1 155 23
2010-06-03 11:38:34 51°32.339 2°55.772 159.5 3.5 184 21.5
2010-06-03 11:39:34 51°32.283 2°55.744 190.3 3.5 206 21.2
2010-06-03 11:40:34 51°32.233 2°55.7 213.2 3.6 214 21.9
2010-06-03 11:41:34 51°32.19 2°55.634 247.2 3.6 232 19.7
2010-06-03 11:42:34 51°32.162 2°55.554 279.6 4 256 18.8
2010-06-03 11:43:34 51°32.185 2°55.387 298.4 9.8 284 21
2010-06-03 11:44:34 51°32.177 2°55.083 267.8 12.6 259 18.3
2010-06-03 11:45:34 51°32.172 2°54.733 283.1 13.6 276 20.4
2010-06-03 11:46:34 51°32.212 2°54.377 289.6 13.5 281 20.9
2010-06-03 11:47:34 51°32.255 2°54.022 289.1 13.6 281 23.1
2010-06-03 11:48:34 51°32.301 2°53.666 289.5 13.6 282 23.4
2010-06-03 11:49:34 51°32.339 2°53.309 281.9 13.8 272 22.2
2010-06-03 11:50:34 51°32.315 2°52.941 266.3 13.3 262 26.2
2010-06-03 11:51:34 51°32.249 2°52.728 213.2 6.9 213 21.7
2010-06-03 11:52:34 51°32.175 2°52.684 166.3 3.1 196 25.7
2010-06-03 11:53:34 51°32.145 2°52.651 143.4 2 229 23.9
2010-06-03 11:54:34 51°32.122 2°52.608 150.5 2.1 229 23.5
2010-06-03 11:55:34 51°32.099 2°52.566 157.8 2.1 229 24.7
2010-06-03 11:56:34 51°32.077 2°52.524 163.7 2.1 228 24.4
2010-06-03 11:57:34 51°32.053 2°52.484 165.6 2 227 24.3
2010-06-03 11:58:34 51°32.029 2°52.443 162.4 2 226 24.2
2010-06-03 11:59:34 51°32.005 2°52.403 154.5 2 226 25.1
2010-06-03 12:00:34 51°31.981 2°52.364 149.4 2.2 226 23.1
2010-06-03 12:01:34 51°31.952 2°52.327 147.3 2.4 200 24.9
2010-06-03 12:02:34 51°31.9 2°52.35 120.6 5.2 138 23.1
2010-06-03 12:03:34 51°31.88 2°52.535 75.9 9.2 82 20.4
2010-06-03 12:04:34 51°31.873 2°52.814 86 10.9 90 23
2010-06-03 12:05:34 51°31.863 2°53.107 91 11 94 21
2010-06-03 12:06:34 51°31.87 2°53.398 88.2 11.1 93 21.8
2010-06-03 12:07:34 51°31.858 2°53.638 98.4 7.1 113 21.7
2010-06-03 12:08:34 51°31.794 2°53.769 113.4 5.8 129 21.3
2010-06-03 12:09:34 51°31.744 2°53.857 113.3 3.2 146 21.1
2010-06-03 12:10:34 51°31.704 2°53.862 150.5 2 202 19.6
2010-06-03 12:11:34 51°31.671 2°53.838 160.3 2.1 206 20.4
2010-06-03 12:12:34 51°31.643 2°53.812 149.3 1.8 213 21.6
2010-06-03 12:13:34 51°31.621 2°53.784 133.5 1.7 222 21.6
2010-06-03 12:14:34 51°31.599 2°53.748 130 2.1 228 19.9
2010-06-03 12:15:34 51°31.578 2°53.708 138.6 1.9 231 21.2
2010-06-03 12:16:34 51°31.558 2°53.668 147.4 1.9 233 20.7
2010-06-03 12:17:34 51°31.54 2°53.629 159 1.7 232 19.6
2010-06-03 12:18:34 51°31.522 2°53.593 171.9 1.7 230 19.5
2010-06-03 12:19:34 51°31.505 2°53.559 175.6 1.6 231 20.8
2010-06-03 12:20:34 51°31.488 2°53.526 179 1.6 231 21.3
2010-06-03 12:21:34 51°31.455 2°53.497 171.6 4.1 184 20.6
2010-06-03 12:22:34 51°31.388 2°53.585 103.5 6.5 116 18.1
2010-06-03 12:23:34 51°31.369 2°53.799 83.7 9.7 92 18.1
2010-06-03 12:24:34 51°31.323 2°54.071 99.8 10.8 106 19.8
2010-06-03 12:25:34 51°31.317 2°54.348 76 10.2 81 18.9
2010-06-03 12:26:34 51°31.256 2°54.605 120 11.2 125 18.5
2010-06-03 12:27:34 51°31.171 2°54.802 135.4 7.9 149 18.7
2010-06-03 12:28:34 51°31.075 2°54.867 141 4.9 157 18.6
2010-06-03 12:29:34 51°31.022 2°54.894 134.1 2.3 177 18.8
2010-06-03 12:30:34 51°30.997 2°54.873 147.3 1.7 215 17.1
2010-06-03 12:31:34 51°30.971 2°54.849 154 1.8 208 18.5
2010-06-03 12:32:34 51°30.944 2°54.827 151.2 1.9 205 17.8
2010-06-03 12:33:34 51°30.915 2°54.806 144.1 1.9 203 19.2
2010-06-03 12:34:34 51°30.888 2°54.787 135.4 1.8 203 19.3
2010-06-03 12:35:34 51°30.861 2°54.768 132.6 1.8 204 18.9
2010-06-03 12:36:34 51°30.836 2°54.749 126.4 1.6 207 20.9
2010-06-03 12:37:34 51°30.812 2°54.728 121.9 1.8 209 17.9
2010-06-03 12:38:34 51°30.786 2°54.706 119.5 1.7 211 22.3
2010-06-03 12:39:34 51°30.761 2°54.682 118.1 1.6 212 26
2010-06-03 12:40:34 51°30.738 2°54.658 120.9 1.7 212 28.6
2010-06-03 12:41:34 51°30.715 2°54.633 123.8 1.6 215 29.8
2010-06-03 12:42:34 51°30.693 2°54.609 125.5 1.6 215 29.9
2010-06-03 12:43:34 51°30.672 2°54.583 125.7 1.6 217 30.7
2010-06-03 12:44:34 51°30.651 2°54.557 127.8 1.6 217 30.9
2010-06-03 12:45:34 51°30.629 2°54.531 128.4 1.6 217 31.5
2010-06-03 12:46:34 51°30.608 2°54.505 127.5 1.6 218 32
2010-06-03 12:47:34 51°30.588 2°54.479 126.3 1.5 218 32.1
2010-06-03 12:48:34 51°30.568 2°54.453 123.5 1.6 218 32.7
2010-06-03 12:49:34 51°30.547 2°54.426 123.5 1.6 219 33.3
2010-06-03 12:50:34 51°30.525 2°54.399 126.9 1.6 219 33.9
2010-06-03 12:51:34 51°30.505 2°54.373 130.7 1.5 219 34.1
2010-06-03 12:52:34 51°30.483 2°54.345 133.2 1.6 218 34.5
2010-06-03 12:53:34 51°30.462 2°54.32 130.8 1.5 218 34.7
2010-06-03 12:54:34 51°30.443 2°54.294 127.6 1.6 218 34.9
2010-06-03 12:55:34 51°30.422 2°54.269 126.5 1.6 218 34.9
2010-06-03 12:56:34 51°30.402 2°54.244 128.4 1.5 217 35.1
2010-06-03 12:57:34 51°30.378 2°54.231 115.9 1.8 168 35
2010-06-03 12:58:34 51°30.369 2°54.277 57.8 2.4 61 35.2
2010-06-03 12:59:34 51°30.429 2°54.35 38.1 6.7 37 35
2010-06-03 13:00:34 51°30.54 2°54.487 38.8 9.5 38 33.4
2010-06-03 13:01:34 51°30.702 2°54.642 31.4 12.3 31 29.7
2010-06-03 13:02:34 51°30.879 2°54.807 32 12.2 30 17.9
2010-06-03 13:03:34 51°31.053 2°54.974 32.5 12.2 32 18.4
2010-06-03 13:04:34 51°31.226 2°55.141 32.1 12.2 31 16.8
2010-06-03 13:05:34 51°31.398 2°55.308 32 12.1 32 18.8
2010-06-03 13:06:34 51°31.568 2°55.476 32.3 11.9 32 18.3
2010-06-03 13:07:34 51°31.755 2°55.584 19.5 11.9 16 20.2
2010-06-03 13:08:34 51°31.944 2°55.679 20 11.9 17 19.7
2010-06-03 13:09:34 51°32.139 2°55.738 10.2 11.8 6 19.1
2010-06-03 13:10:34 51°32.3 2°55.762 11.2 8.6 10 20.2
2010-06-03 13:11:34 51°32.42 2°55.784 5.2 6.8 358 21.5
2010-06-03 13:12:34 51°32.501 2°55.743 343.3 3.7 322 22.5
2010-06-03 13:13:34 51°32.513 2°55.671 297.1 2.4 251 22
2010-06-03 13:14:34 51°32.491 2°55.623 278.8 2.2 230 23.5
2010-06-03 13:15:34 51°32.466 2°55.58 279.9 2.1 227 22.9
2010-06-03 13:16:34 51°32.441 2°55.538 283.2 2.1 227 20.8
2010-06-03 13:17:34 51°32.416 2°55.501 290.1 2 222 23.5
2010-06-03 13:18:34 51°32.392 2°55.467 299.3 1.8 220 22
2010-06-03 13:19:34 51°32.367 2°55.434 301.9 2 219 21.4
2010-06-03 13:20:34 51°32.342 2°55.404 307.7 1.9 216 22.9
2010-06-03 13:21:34 51°32.316 2°55.376 310.4 1.9 214 20.3
2010-06-03 13:22:34 51°32.29 2°55.347 310.1 1.9 212 22.2
2010-06-03 13:23:34 51°32.263 2°55.32 307.1 2 213 20.1
2010-06-03 13:24:34 51°32.236 2°55.294 300.2 1.9 209 22.8
2010-06-03 13:25:34 51°32.208 2°55.269 288.2 1.9 209 21.9
2010-06-03 13:26:34 51°32.181 2°55.244 284.5 1.9 210 21.3
2010-06-03 13:27:34 51°32.155 2°55.222 283.1 1.8 208 22.9
2010-06-03 13:28:34 51°32.129 2°55.2 282.2 1.8 207 22.1
2010-06-03 13:29:34 51°32.102 2°55.177 280.6 1.8 207 20
2010-06-03 13:30:34 51°32.076 2°55.155 284.8 1.8 206 22.1
2010-06-03 13:31:34 51°32.049 2°55.135 288.1 1.8 205 21.8
2010-06-03 13:32:34 51°32.022 2°55.113 292.1 1.8 207 18.4
2010-06-03 13:33:34 51°31.995 2°55.092 295.7 1.7 205 21.8
2010-06-03 13:34:34 51°31.969 2°55.072 299.7 1.8 204 21.8
2010-06-03 13:35:34 51°31.942 2°55.053 300.6 1.9 203 19.4
2010-06-03 13:36:34 51°31.913 2°55.034 297.3 1.8 201 21.5
2010-06-03 13:37:34 51°31.885 2°55.017 290.8 1.9 202 17.9
2010-06-03 13:38:34 51°31.857 2°54.999 286.4 1.8 200 21.4
2010-06-03 13:39:34 51°31.829 2°54.982 279.4 1.7 202 19.4
2010-06-03 13:40:34 51°31.801 2°54.964 276.6 1.7 203 21
2010-06-03 13:41:34 51°31.774 2°54.946 279.6 1.8 203 21.5
2010-06-03 13:42:34 51°31.747 2°54.927 281.9 1.8 203 20
2010-06-03 13:43:34 51°31.721 2°54.903 289 1.9 231 20.5
2010-06-03 13:44:34 51°31.731 2°54.841 335.6 4.4 322 21.4
2010-06-03 13:45:34 51°31.865 2°54.798 359.7 11.1 354 21.9
2010-06-03 13:46:34 51°32.066 2°54.765 359.6 12.4 353 19.2
2010-06-03 13:47:34 51°32.271 2°54.745 3.2 12.3 357 22.6
2010-06-03 13:48:34 51°32.476 2°54.73 3 12.4 359 22.5
2010-06-03 13:49:34 51°32.68 2°54.736 8.4 12.3 3 21.4
2010-06-03 13:50:34 51°32.881 2°54.783 16.1 12.2 11 25.7
2010-06-03 13:51:34 51°33.069 2°54.897 29.1 12.1 29 23.2
2010-06-03 13:52:34 51°33.225 2°55.095 42.2 12.1 42 24.2
2010-06-03 13:53:34 51°33.317 2°55.377 72.7 12.3 78 26.2
2010-06-03 13:54:34 51°33.277 2°55.698 112.6 12 122 27
2010-06-03 13:55:34 51°33.179 2°55.844 133.1 5.8 143 26.9
2010-06-03 13:56:34 51°33.142 2°55.925 84.4 2.7 110 25.1
2010-06-03 13:57:34 51°33.148 2°55.975 34.8 1.5 42 25.8
2010-06-03 13:58:34 51°33.175 2°55.96 339.8 2.2 302 25.1
2010-06-03 13:59:34 51°33.175 2°55.916 318.7 1.7 250 24.4
2010-06-03 14:00:34 51°33.161 2°55.874 312.4 1.8 240 26.2
2010-06-03 14:01:34 51°33.145 2°55.836 312.5 1.7 240 26.8
2010-06-03 14:02:34 51°33.169 2°55.793 4.3 2.4 352 26.3
2010-06-03 14:03:34 51°33.216 2°55.829 32.3 3.9 34 25.1
2010-06-03 14:04:34 51°33.259 2°55.916 56.4 4.3 66 26.5
2010-06-03 14:05:34 51°33.261 2°56.032 96.8 4.6 117 27.8
2010-06-03 14:06:34 51°33.182 2°56.07 183 6 194 26.7
2010-06-03 14:07:34 51°33.119 2°55.977 257 3 236 25.3
2010-06-03 14:08:34 51°33.093 2°55.958 287.2 1.7 200 25.9
2010-06-03 14:09:34 51°33.069 2°55.931 294.5 2 234 26.5
2010-06-03 14:10:34 51°33.066 2°55.882 329.7 1.7 282 26.3
2010-06-03 14:11:34 51°33.063 2°55.842 329.3 1.6 256 24.7
2010-06-03 14:12:34 51°33.079 2°55.799 352.1 2.6 327 25.9
2010-06-03 14:13:34 51°33.107 2°55.769 352.8 1.8 322 25.2
2010-06-03 14:14:34 51°33.188 2°55.76 13.3 8.2 10 25.7
2010-06-03 14:15:34 51°33.344 2°55.892 41.5 11.6 46 27.8
2010-06-03 14:16:34 51°33.468 2°56.134 49.4 11.7 50 28.3
2010-06-03 14:17:34 51°33.598 2°56.365 43.4 11.7 43 28
2010-06-03 14:18:34 51°33.752 2°56.562 37.7 11.9 37 29.8
2010-06-03 14:19:34 51°33.883 2°56.723 35.3 6.3 36 30.4
2010-06-03 14:20:34 51°33.936 2°56.755 1.7 2.1 348 28.4
2010-06-03 14:21:34 51°33.944 2°56.72 314.4 1.6 251 28.3
2010-06-03 14:22:34 51°33.931 2°56.681 296.6 1.8 236 28
2010-06-03 14:23:34 51°33.912 2°56.646 302.1 1.7 224 29.7
2010-06-03 14:24:34 51°33.892 2°56.62 308.2 1.6 213 30
2010-06-03 14:26:22 51°33.845 2°56.589 290.9 1.6 196 29.4
2010-06-03 14:28:53 51°33.782 2°56.56 266.9 1.6 196 27.1
2010-06-03 14:29:53 51°33.758 2°56.549 267.3 1.5 194 30
2010-06-03 14:30:53 51°33.734 2°56.539 269.6 1.5 194 30.2
2010-06-03 14:31:53 51°33.71 2°56.529 270.3 1.6 195 30.2
2010-06-03 14:32:53 51°33.687 2°56.518 271.8 1.3 199 29.7
2010-06-03 14:33:53 51°33.662 2°56.485 256.5 3.3 235 29.1
2010-06-03 14:34:53 51°33.595 2°56.437 180.5 4.3 185 28.7
2010-06-03 14:35:53 51°33.534 2°56.435 165.5 3.3 179 25.4
2010-06-03 14:36:53 51°33.486 2°56.444 148.9 2.6 171 29
2010-06-03 14:37:53 51°33.45 2°56.457 135.4 2 167 28.5
2010-06-03 14:38:53 51°33.419 2°56.465 131.1 1.8 175 28
2010-06-03 14:39:53 51°33.392 2°56.467 128.2 1.5 185 27
2010-06-03 14:40:53 51°33.368 2°56.459 125 1.3 197 27.2
2010-06-03 14:41:53 51°33.347 2°56.443 128.4 1.4 213 26.7
2010-06-03 14:42:53 51°33.328 2°56.422 142.4 1.3 218 28.3
2010-06-03 14:43:53 51°33.313 2°56.401 156.7 1.1 222 27.9
2010-06-03 14:44:53 51°33.3 2°56.383 167.7 1 221 27.2
2010-06-03 14:45:53 51°33.288 2°56.366 178.9 0.9 217 26.2
2010-06-03 14:46:53 51°33.276 2°56.353 189.1 0.9 213 28.3
2010-06-03 14:47:53 51°33.263 2°56.342 199.3 0.9 202 28.7
2010-06-03 14:48:53 51°33.249 2°56.333 209.8 0.9 199 28.6
2010-06-03 14:49:53 51°33.234 2°56.325 219.1 1.1 197 28.3
2010-06-03 14:50:53 51°33.215 2°56.317 226.3 1.2 199 27.9
2010-06-03 14:51:53 51°33.195 2°56.308 237.4 1.3 196 26.7
2010-06-03 14:52:53 51°33.174 2°56.296 258.4 1.3 201 27
2010-06-03 14:53:53 51°33.155 2°56.284 276.4 1.2 203 26.1
2010-06-03 14:54:53 51°33.137 2°56.272 290.3 1.2 201 27.5
2010-06-03 14:55:53 51°33.118 2°56.263 298.2 1.2 197 26.9
2010-06-03 14:56:53 51°33.099 2°56.254 304.5 1.3 196 26.1
2010-06-03 14:57:53 51°33.079 2°56.245 304.9 1.1 191 25.3
2010-06-03 14:58:53 51°33.058 2°56.237 302.8 1.3 191 27
2010-06-03 14:59:53 51°33.036 2°56.229 296.2 1.3 192 27.2
2010-06-03 15:00:53 51°33.015 2°56.223 290.5 1.2 190 26.4
2010-06-03 15:01:53 51°32.994 2°56.216 287.8 1.2 193 25.1
2010-06-03 15:02:52 51°32.974 2°56.208 287.7 1.3 193 26.5
2010-06-03 15:03:53 51°32.954 2°56.198 291.1 1.3 224 26.9
2010-06-03 15:04:52 51°33.012 2°56.091 324.1 9.8 319 27.1
2010-06-03 15:05:53 51°33.17 2°55.884 321.6 12.8 317 26.3
2010-06-03 15:06:53 51°33.275 2°55.589 287.2 13.1 281 28
2010-06-03 15:07:53 51°33.243 2°55.243 252.2 13.3 249 26.8
2010-06-03 15:08:53 51°33.091 2°54.997 208.7 13.3 206 27.1
2010-06-03 15:09:53 51°32.876 2°55.026 156 13.6 154 25.9
2010-06-03 15:10:53 51°32.739 2°55.216 113 7.4 116 25.9
2010-06-03 15:11:53 51°32.713 2°55.337 96.8 3.1 110 25.5
2010-06-03 15:12:53 51°32.691 2°55.389 116.8 1.9 135 25.6
2010-06-03 15:13:52 51°32.676 2°55.402 118.9 0.7 177 25.5
2010-06-03 15:14:53 51°32.662 2°55.402 124.4 0.8 180 25.2
2010-06-03 15:15:53 51°32.648 2°55.401 131.4 0.9 185 25.2
2010-06-03 15:16:53 51°32.634 2°55.399 136.7 0.8 184 23.8
2010-06-03 15:17:53 51°32.62 2°55.398 138.7 0.9 186 22.1
2010-06-03 15:18:53 51°32.606 2°55.398 136.4 0.8 175 24.3
2010-06-03 15:19:53 51°32.591 2°55.4 131.7 0.9 175 25
2010-06-03 15:20:53 51°32.576 2°55.402 126 0.9 174 25.3
2010-06-03 15:21:53 51°32.562 2°55.405 121.6 0.8 166 25
2010-06-03 15:22:53 51°32.547 2°55.408 120.4 0.9 175 25.2
2010-06-03 15:23:53 51°32.533 2°55.412 120.8 0.9 169 24.3
2010-06-03 15:24:53 51°32.512 2°55.43 134.6 2.2 144 23.6
2010-06-03 15:25:53 51°32.456 2°55.446 197.9 3.7 192 24.9
2010-06-03 15:26:52 51°32.414 2°55.406 238 2.5 225 20.1
2010-06-03 15:27:52 51°32.396 2°55.358 269.2 1.7 246 24.4
2010-06-03 15:28:57 51°32.389 2°55.321 286.8 1.1 260 23.7
2010-06-03 15:30:00 51°32.385 2°55.296 299.2 0.7 266 22.2
2010-06-03 15:32:20 51°32.355 2°55.197 213.1 3.2 202 23.1
2010-06-03 15:33:21 51°32.3 2°55.212 150.3 3.4 149 24.7
2010-06-03 15:34:20 51°32.262 2°55.263 132.6 2.8 140 24.3
2010-06-03 15:35:21 51°32.23 2°55.31 127 2.4 137 24.4
2010-06-03 15:36:20 51°32.211 2°55.338 120.3 0.6 166 24.1
2010-06-03 15:37:21 51°32.202 2°55.334 131.6 0.6 191 23.8
2010-06-03 15:38:21 51°32.192 2°55.334 145.5 0.7 176 23.9
2010-06-03 15:39:21 51°32.181 2°55.336 152.2 0.6 170 24.2
2010-06-03 15:40:21 51°32.17 2°55.338 148.5 0.6 170 23.6
2010-06-03 15:41:20 51°32.158 2°55.343 140.9 0.7 155 23.7
2010-06-03 15:42:21 51°32.147 2°55.35 133.1 0.7 152 23.1
2010-06-03 15:43:20 51°32.136 2°55.358 128.4 0.7 154 22.6
2010-06-03 15:44:21 51°32.124 2°55.368 126 0.9 156 22.3
2010-06-03 15:45:20 51°32.113 2°55.378 124.9 0.8 154 21.8
2010-06-03 15:46:21 51°32.103 2°55.385 127.5 0.6 148 20.9
2010-06-03 15:47:20 51°32.094 2°55.391 128.3 0.5 149 19.7
2010-06-03 15:48:21 51°32.085 2°55.397 129.7 0.5 163 19.7
2010-06-03 15:49:21 51°32.078 2°55.402 131.6 0.6 169 21.1
2010-06-03 15:50:21 51°32.051 2°55.432 156 2.9 151 22
2010-06-03 15:51:21 51°31.976 2°55.489 155.1 7.1 153 23.5
2010-06-03 15:52:20 51°31.827 2°55.529 184.6 10.6 187 22.3
2010-06-03 15:53:21 51°31.634 2°55.456 197.4 12.7 196 21.2
2010-06-03 15:54:20 51°31.431 2°55.355 198.4 13.1 198 19.8
2010-06-03 15:55:20 51°31.222 2°55.251 199.7 13.1 197 20.5
2010-06-03 15:56:20 51°31.012 2°55.149 198.8 13.1 195 19.6
2010-06-03 15:57:20 51°30.805 2°55.05 199 13 194 28.7
2010-06-03 15:58:21 51°30.593 2°54.947 199.5 13 196 37.3
2010-06-03 15:59:20 51°30.39 2°54.848 198.7 13.1 198 36
2010-06-03 16:00:21 51°30.181 2°54.746 200.1 12.8 196 36
2010-06-03 16:01:20 51°29.983 2°54.646 200.1 12.6 198 34
2010-06-03 16:02:21 51°29.777 2°54.55 199 12.7 196 32.6
2010-06-03 16:03:20 51°29.577 2°54.451 200.2 12.7 198 31.5
2010-06-03 16:04:21 51°29.373 2°54.338 199.7 12.7 199 30.5
2010-06-03 16:05:20 51°29.172 2°54.226 198.5 13 199 29
2010-06-03 16:06:21 51°28.964 2°54.111 199 13.1 201 27.8
2010-06-03 16:07:21 51°28.76 2°54 198.3 13 198 26.9
2010-06-03 16:08:20 51°28.557 2°53.89 199 13 199 26.6
2010-06-03 16:09:21 51°28.346 2°53.776 198.3 13.2 198 25.1
2010-06-03 16:10:20 51°28.142 2°53.66 200.2 13.2 201 22.4
2010-06-03 16:11:21 51°27.932 2°53.546 198.8 13 200 24.1
2010-06-03 16:12:20 51°27.732 2°53.432 199.7 12.9 199 23.4
2010-06-03 16:13:21 51°27.525 2°53.319 199.4 12.9 199 24
2010-06-03 16:14:20 51°27.329 2°53.208 199.1 12.6 200 26.8
2010-06-03 16:15:21 51°27.127 2°53.088 200 12.8 200 29.3
2010-06-03 16:16:21 51°26.928 2°52.975 199.2 12.7 199 30.5
2010-06-03 16:17:21 51°26.73 2°52.865 198.7 12.4 197 30.4
2010-06-03 16:18:21 51°26.522 2°52.809 188.6 12.7 187 29.3
2010-06-03 16:19:20 51°26.316 2°52.77 188.3 12.7 185 28
2010-06-03 16:20:21 51°26.103 2°52.728 189.3 12.7 188 29.2
2010-06-03 16:21:20 51°25.899 2°52.685 189.9 12.7 187 29.4
2010-06-03 16:22:20 51°25.688 2°52.645 189.3 12.6 186 28.2
2010-06-03 16:23:20 51°25.478 2°52.6 189.4 12.6 187 26.2
2010-06-03 16:24:20 51°25.268 2°52.553 189.5 12.4 188 25.3
2010-06-03 16:25:20 51°25.057 2°52.504 189 13 188 26
2010-06-03 16:26:20 51°24.844 2°52.458 190.2 12.7 188 25
2010-06-03 16:27:21 51°24.625 2°52.439 179.2 13 176 23
2010-06-03 16:28:20 51°24.415 2°52.467 177.1 12.8 174 20.2
2010-06-03 16:29:21 51°24.195 2°52.5 177.1 13.1 173 18.7
2010-06-03 16:30:20 51°23.987 2°52.527 178.5 12.7 175 18.6
2010-06-03 16:31:21 51°23.771 2°52.556 177.8 12.8 176 19.4
2010-06-03 16:32:20 51°23.563 2°52.586 177.7 12.7 174 21.3
2010-06-03 16:33:21 51°23.353 2°52.62 177.6 12.4 172 22.6
2010-06-03 16:34:21 51°23.146 2°52.65 179 12.7 175 23.7
2010-06-03 16:35:20 51°22.937 2°52.676 178.5 12.7 173 24.6
2010-06-03 16:36:21 51°22.726 2°52.669 184.9 12.5 183 25.1
2010-06-03 16:37:20 51°22.52 2°52.657 184.2 12.5 182 24.8
2010-06-03 16:38:21 51°22.308 2°52.644 184.5 12.6 182 25.9
2010-06-03 16:39:20 51°22.099 2°52.638 183.8 12.7 180 26
2010-06-03 16:40:21 51°21.887 2°52.627 184.7 12.6 182 24.8
2010-06-03 16:41:20 51°21.678 2°52.617 184.4 12.7 182 22.2
2010-06-03 16:42:21 51°21.462 2°52.606 183.9 12.8 180 19.7
2010-06-03 16:43:21 51°21.248 2°52.591 184.6 12.8 183 18.4
2010-06-03 16:44:20 51°21.04 2°52.576 184.4 12.7 184 17.5
2010-06-03 16:45:21 51°20.825 2°52.559 184.1 12.8 180 17
2010-06-03 16:46:20 51°20.615 2°52.548 182.9 12.9 180 16.9
2010-06-03 16:47:21 51°20.4 2°52.538 184.6 12.8 181 18
2010-06-03 16:48:20 51°20.193 2°52.53 183.8 12.6 178 18.3
2010-06-03 16:49:21 51°19.981 2°52.519 183.8 12.7 178 18.3
2010-06-03 16:50:20 51°19.777 2°52.505 185.9 12.4 186 18.2
2010-06-03 16:51:21 51°19.561 2°52.494 184.2 12.8 182 17.5
2010-06-03 16:52:20 51°19.354 2°52.476 186.2 12.6 183 16.9
2010-06-03 16:53:21 51°19.141 2°52.45 186.3 12.6 185 16.1
2010-06-03 16:54:21 51°18.933 2°52.426 186 12.5 184 15.1
2010-06-03 16:55:20 51°18.731 2°52.403 186.4 12.6 185 14.3
2010-06-03 16:56:21 51°18.52 2°52.378 186.9 12.4 185 13.6
2010-06-03 16:57:20 51°18.315 2°52.35 185 12.6 183 13.2
2010-06-03 16:58:20 51°18.105 2°52.33 184.9 12.7 182 12.9
2010-06-03 16:59:20 51°17.897 2°52.326 183 12.4 182 12.6
2010-06-03 17:00:20 51°17.69 2°52.339 177.1 12.6 174 12.5
2010-06-03 17:01:20 51°17.482 2°52.386 175.7 12.7 171 12.7
2010-06-03 17:02:20 51°17.273 2°52.448 169 12.9 163 12.4
2010-06-03 17:03:20 51°17.07 2°52.564 161.6 13 157 11.6
2010-06-03 17:04:20 51°16.869 2°52.691 161.6 12.9 159 11.6
2010-06-03 17:05:21 51°16.665 2°52.815 162.9 13 161 13.2
2010-06-03 17:06:20 51°16.465 2°52.939 161.8 13.2 155 14
2010-06-03 17:07:21 51°16.26 2°53.068 159.4 13 156 14.1
2010-06-03 17:08:20 51°16.071 2°53.228 153.7 13 154 14
2010-06-03 17:09:20 51°15.881 2°53.4 151.8 13.2 150 13.9
2010-06-03 17:10:20 51°15.698 2°53.596 146.1 13.2 144 13.8
2010-06-03 17:11:20 51°15.523 2°53.811 143.6 13.4 139 13.1
2010-06-03 17:12:21 51°15.349 2°54.039 143.8 13.2 140 12.8
2010-06-03 17:13:20 51°15.181 2°54.252 143.7 13.3 138 12.4
2010-06-03 17:14:21 51°15.007 2°54.47 144.3 12.9 141 12.3
2010-06-03 17:15:20 51°14.838 2°54.682 146.9 13.1 142 14
2010-06-03 17:16:21 51°14.658 2°54.886 147.4 13 149 13.8
2010-06-03 17:17:20 51°14.478 2°55.073 149.4 12.9 151 12.9
2010-06-03 17:18:20 51°14.302 2°55.247 146.9 10.9 148 12.5
2010-06-03 17:19:20 51°14.16 2°55.379 151.6 9.5 153 12.9
2010-06-03 17:20:20 51°14.026 2°55.478 154.7 7.8 155 12.5
2010-06-03 17:21:20 51°13.914 2°55.56 154.9 7.3 155 13.1
2010-06-03 17:22:20 51°13.807 2°55.644 151.2 7 150 13.4
2010-06-03 17:23:20 51°13.731 2°55.758 126.9 5.6 128 14.3
2010-06-03 17:24:20 51°13.686 2°55.866 121.1 4.4 121 10.7
2010-06-03 17:25:21 51°13.665 2°55.948 112.6 1.1 115 8.4